sensor_id;sensor_type;location;lat;lon;timestamp;P1;durP1;ratioP1;P2;durP2;ratioP2
51489;SDS011;57752;53.574;9.736;2022-10-22T00:02:14;47.95;;;22.83;;
51489;SDS011;57752;53.574;9.736;2022-10-22T00:07:20;52.97;;;22.88;;
51489;SDS011;57752;53.574;9.736;2022-10-22T00:12:21;48.88;;;23.52;;
51489;SDS011;57752;53.574;9.736;2022-10-22T00:17:21;43.80;;;21.33;;
51489;SDS011;57752;53.574;9.736;2022-10-22T00:22:21;52.13;;;22.25;;
51489;SDS011;57752;53.574;9.736;2022-10-22T00:27:22;46.80;;;22.63;;
51489;SDS011;57752;53.574;9.736;2022-10-22T00:32:22;45.95;;;20.27;;
51489;SDS011;57752;53.574;9.736;2022-10-22T00:37:22;53.42;;;25.13;;
51489;SDS011;57752;53.574;9.736;2022-10-22T00:42:24;46.23;;;23.53;;
51489;SDS011;57752;53.574;9.736;2022-10-22T00:47:26;50.10;;;24.15;;
51489;SDS011;57752;53.574;9.736;2022-10-22T00:52:28;28.95;;;15.25;;
51489;SDS011;57752;53.574;9.736;2022-10-22T00:57:28;33.40;;;16.83;;
51489;SDS011;57752;53.574;9.736;2022-10-22T01:02:28;48.55;;;22.13;;
51489;SDS011;57752;53.574;9.736;2022-10-22T01:07:29;35.40;;;16.95;;
51489;SDS011;57752;53.574;9.736;2022-10-22T01:22:43;53.22;;;22.88;;
51489;SDS011;57752;53.574;9.736;2022-10-22T01:28:25;35.97;;;17.05;;
51489;SDS011;57752;53.574;9.736;2022-10-22T01:33:41;52.42;;;21.17;;
51489;SDS011;57752;53.574;9.736;2022-10-22T01:38:43;90.80;;;23.92;;
51489;SDS011;57752;53.574;9.736;2022-10-22T01:43:44;33.45;;;16.05;;
51489;SDS011;57752;53.574;9.736;2022-10-22T01:59:28;145.95;;;22.75;;
51489;SDS011;57752;53.574;9.736;2022-10-22T02:04:33;60.30;;;20.60;;
51489;SDS011;57752;53.574;9.736;2022-10-22T02:09:35;75.97;;;20.02;;
51489;SDS011;57752;53.574;9.736;2022-10-22T02:14:37;68.10;;;17.48;;
51489;SDS011;57752;53.574;9.736;2022-10-22T02:19:41;34.70;;;15.50;;
51489;SDS011;57752;53.574;9.736;2022-10-22T02:24:46;35.40;;;12.23;;
51489;SDS011;57752;53.574;9.736;2022-10-22T02:29:49;120.55;;;20.60;;
51489;SDS011;57752;53.574;9.736;2022-10-22T02:34:53;28.20;;;11.35;;
51489;SDS011;57752;53.574;9.736;2022-10-22T02:39:54;22.75;;;10.02;;
51489;SDS011;57752;53.574;9.736;2022-10-22T02:44:55;42.65;;;15.32;;
51489;SDS011;57752;53.574;9.736;2022-10-22T02:49:55;48.30;;;12.63;;
51489;SDS011;57752;53.574;9.736;2022-10-22T02:54:55;37.22;;;13.77;;
51489;SDS011;57752;53.574;9.736;2022-10-22T02:59:56;27.70;;;13.45;;
51489;SDS011;57752;53.574;9.736;2022-10-22T03:04:56;138.38;;;23.02;;
51489;SDS011;57752;53.574;9.736;2022-10-22T03:09:56;30.97;;;13.97;;
51489;SDS011;57752;53.574;9.736;2022-10-22T03:14:57;50.20;;;19.53;;
51489;SDS011;57752;53.574;9.736;2022-10-22T03:19:57;110.03;;;33.70;;
51489;SDS011;57752;53.574;9.736;2022-10-22T03:24:58;124.20;;;35.75;;
51489;SDS011;57752;53.574;9.736;2022-10-22T03:29:59;104.63;;;34.97;;
51489;SDS011;57752;53.574;9.736;2022-10-22T03:35:00;94.47;;;31.92;;
51489;SDS011;57752;53.574;9.736;2022-10-22T03:40:01;125.57;;;35.67;;
51489;SDS011;57752;53.574;9.736;2022-10-22T03:45:03;94.73;;;32.17;;
51489;SDS011;57752;53.574;9.736;2022-10-22T03:50:04;119.57;;;34.65;;
51489;SDS011;57752;53.574;9.736;2022-10-22T03:55:05;224.20;;;41.20;;
51489;SDS011;57752;53.574;9.736;2022-10-22T04:00:06;97.18;;;30.83;;
51489;SDS011;57752;53.574;9.736;2022-10-22T04:05:07;78.10;;;26.95;;
51489;SDS011;57752;53.574;9.736;2022-10-22T04:10:07;137.83;;;31.40;;
51489;SDS011;57752;53.574;9.736;2022-10-22T04:15:08;196.90;;;31.52;;
51489;SDS011;57752;53.574;9.736;2022-10-22T04:20:08;95.75;;;29.63;;
51489;SDS011;57752;53.574;9.736;2022-10-22T04:25:09;271.45;;;36.90;;
51489;SDS011;57752;53.574;9.736;2022-10-22T04:30:10;123.57;;;29.70;;
51489;SDS011;57752;53.574;9.736;2022-10-22T04:35:10;75.35;;;17.40;;
51489;SDS011;57752;53.574;9.736;2022-10-22T04:40:11;71.97;;;20.90;;
51489;SDS011;57752;53.574;9.736;2022-10-22T04:45:11;107.57;;;28.10;;
51489;SDS011;57752;53.574;9.736;2022-10-22T04:50:12;175.23;;;31.02;;
51489;SDS011;57752;53.574;9.736;2022-10-22T04:55:12;95.78;;;24.42;;
51489;SDS011;57752;53.574;9.736;2022-10-22T05:00:12;136.80;;;27.58;;
51489;SDS011;57752;53.574;9.736;2022-10-22T05:05:15;70.70;;;25.75;;
51489;SDS011;57752;53.574;9.736;2022-10-22T05:10:15;176.07;;;31.83;;
51489;SDS011;57752;53.574;9.736;2022-10-22T05:15:16;68.53;;;26.48;;
51489;SDS011;57752;53.574;9.736;2022-10-22T05:20:16;187.67;;;35.40;;
51489;SDS011;57752;53.574;9.736;2022-10-22T05:25:16;67.03;;;23.80;;
51489;SDS011;57752;53.574;9.736;2022-10-22T05:30:17;189.23;;;36.55;;
51489;SDS011;57752;53.574;9.736;2022-10-22T05:35:17;99.97;;;29.25;;
51489;SDS011;57752;53.574;9.736;2022-10-22T05:40:17;56.50;;;22.55;;
51489;SDS011;57752;53.574;9.736;2022-10-22T05:45:17;99.45;;;28.92;;
51489;SDS011;57752;53.574;9.736;2022-10-22T05:50:18;98.80;;;24.67;;
51489;SDS011;57752;53.574;9.736;2022-10-22T05:55:18;52.83;;;20.73;;
51489;SDS011;57752;53.574;9.736;2022-10-22T06:00:18;49.27;;;20.57;;
51489;SDS011;57752;53.574;9.736;2022-10-22T06:05:19;57.13;;;24.17;;
51489;SDS011;57752;53.574;9.736;2022-10-22T06:10:19;78.18;;;28.00;;
51489;SDS011;57752;53.574;9.736;2022-10-22T06:15:20;56.65;;;26.13;;
51489;SDS011;57752;53.574;9.736;2022-10-22T06:20:20;61.00;;;25.48;;
51489;SDS011;57752;53.574;9.736;2022-10-22T06:25:20;70.97;;;29.00;;
51489;SDS011;57752;53.574;9.736;2022-10-22T06:30:21;61.22;;;26.42;;
51489;SDS011;57752;53.574;9.736;2022-10-22T06:35:21;86.82;;;31.75;;
51489;SDS011;57752;53.574;9.736;2022-10-22T06:40:21;60.55;;;25.83;;
51489;SDS011;57752;53.574;9.736;2022-10-22T06:45:22;73.15;;;30.85;;
51489;SDS011;57752;53.574;9.736;2022-10-22T06:50:22;89.57;;;32.00;;
51489;SDS011;57752;53.574;9.736;2022-10-22T06:55:22;71.53;;;29.07;;
51489;SDS011;57752;53.574;9.736;2022-10-22T07:00:23;50.80;;;24.50;;
51489;SDS011;57752;53.574;9.736;2022-10-22T07:05:23;83.68;;;31.73;;
51489;SDS011;57752;53.574;9.736;2022-10-22T07:10:23;75.10;;;31.45;;
51489;SDS011;57752;53.574;9.736;2022-10-22T07:15:24;87.70;;;30.03;;
51489;SDS011;57752;53.574;9.736;2022-10-22T07:20:24;71.72;;;29.23;;
51489;SDS011;57752;53.574;9.736;2022-10-22T07:25:24;81.60;;;31.38;;
51489;SDS011;57752;53.574;9.736;2022-10-22T07:30:25;58.50;;;25.55;;
51489;SDS011;57752;53.574;9.736;2022-10-22T07:35:25;71.45;;;29.58;;
51489;SDS011;57752;53.574;9.736;2022-10-22T07:40:26;66.88;;;28.58;;
51489;SDS011;57752;53.574;9.736;2022-10-22T07:45:26;83.22;;;32.05;;
51489;SDS011;57752;53.574;9.736;2022-10-22T07:50:26;85.70;;;32.33;;
51489;SDS011;57752;53.574;9.736;2022-10-22T07:55:27;68.47;;;30.63;;
51489;SDS011;57752;53.574;9.736;2022-10-22T08:00:27;81.80;;;33.07;;
51489;SDS011;57752;53.574;9.736;2022-10-22T08:05:27;65.45;;;30.60;;
51489;SDS011;57752;53.574;9.736;2022-10-22T08:10:28;59.97;;;27.02;;
51489;SDS011;57752;53.574;9.736;2022-10-22T08:15:28;56.65;;;27.55;;
51489;SDS011;57752;53.574;9.736;2022-10-22T08:20:29;56.50;;;25.90;;
51489;SDS011;57752;53.574;9.736;2022-10-22T08:25:29;50.87;;;24.27;;
51489;SDS011;57752;53.574;9.736;2022-10-22T08:30:29;44.05;;;23.52;;
51489;SDS011;57752;53.574;9.736;2022-10-22T08:35:30;39.57;;;21.23;;
51489;SDS011;57752;53.574;9.736;2022-10-22T08:40:31;45.25;;;23.33;;
51489;SDS011;57752;53.574;9.736;2022-10-22T08:50:40;34.95;;;19.08;;
51489;SDS011;57752;53.574;9.736;2022-10-22T08:55:43;36.70;;;18.92;;
51489;SDS011;57752;53.574;9.736;2022-10-22T09:00:45;29.70;;;16.05;;
51489;SDS011;57752;53.574;9.736;2022-10-22T09:16:15;37.85;;;19.30;;
51489;SDS011;57752;53.574;9.736;2022-10-22T09:26:51;28.67;;;15.65;;
51489;SDS011;57752;53.574;9.736;2022-10-22T09:31:51;29.97;;;13.77;;
51489;SDS011;57752;53.574;9.736;2022-10-22T09:36:56;27.25;;;14.40;;
51489;SDS011;57752;53.574;9.736;2022-10-22T09:41:57;26.52;;;13.43;;
51489;SDS011;57752;53.574;9.736;2022-10-22T09:46:57;28.03;;;13.23;;
51489;SDS011;57752;53.574;9.736;2022-10-22T09:51:58;24.02;;;12.35;;
51489;SDS011;57752;53.574;9.736;2022-10-22T10:02:13;22.75;;;10.60;;
51489;SDS011;57752;53.574;9.736;2022-10-22T10:07:19;22.20;;;11.18;;
51489;SDS011;57752;53.574;9.736;2022-10-22T10:17:38;18.73;;;8.63;;
51489;SDS011;57752;53.574;9.736;2022-10-22T10:27:42;16.65;;;8.13;;
51489;SDS011;57752;53.574;9.736;2022-10-22T10:43:20;16.58;;;6.70;;
51489;SDS011;57752;53.574;9.736;2022-10-22T10:54:13;15.38;;;6.15;;
51489;SDS011;57752;53.574;9.736;2022-10-22T10:59:31;16.73;;;6.28;;
51489;SDS011;57752;53.574;9.736;2022-10-22T11:10:09;17.52;;;6.22;;
51489;SDS011;57752;53.574;9.736;2022-10-22T11:15:24;13.65;;;5.35;;
51489;SDS011;57752;53.574;9.736;2022-10-22T11:20:30;12.80;;;5.22;;
51489;SDS011;57752;53.574;9.736;2022-10-22T11:25:37;17.95;;;6.63;;
51489;SDS011;57752;53.574;9.736;2022-10-22T11:30:44;17.67;;;6.07;;
51489;SDS011;57752;53.574;9.736;2022-10-22T11:35:47;15.32;;;5.28;;
51489;SDS011;57752;53.574;9.736;2022-10-22T11:40:59;14.60;;;5.82;;
51489;SDS011;57752;53.574;9.736;2022-10-22T11:46:23;15.25;;;5.25;;
51489;SDS011;57752;53.574;9.736;2022-10-22T11:51:36;15.85;;;5.15;;
51489;SDS011;57752;53.574;9.736;2022-10-22T11:56:37;15.60;;;5.57;;
51489;SDS011;57752;53.574;9.736;2022-10-22T12:01:41;13.63;;;5.25;;
51489;SDS011;57752;53.574;9.736;2022-10-22T12:06:51;14.93;;;4.97;;
51489;SDS011;57752;53.574;9.736;2022-10-22T12:11:53;14.93;;;4.47;;
51489;SDS011;57752;53.574;9.736;2022-10-22T12:16:55;17.30;;;5.55;;
51489;SDS011;57752;53.574;9.736;2022-10-22T12:21:58;13.93;;;5.32;;
51489;SDS011;57752;53.574;9.736;2022-10-22T12:27:02;16.23;;;6.22;;
51489;SDS011;57752;53.574;9.736;2022-10-22T12:32:04;13.33;;;5.53;;
51489;SDS011;57752;53.574;9.736;2022-10-22T12:37:05;16.38;;;7.25;;
51489;SDS011;57752;53.574;9.736;2022-10-22T12:42:06;20.37;;;7.30;;
51489;SDS011;57752;53.574;9.736;2022-10-22T12:47:12;13.25;;;6.65;;
51489;SDS011;57752;53.574;9.736;2022-10-22T12:52:17;17.20;;;6.78;;
51489;SDS011;57752;53.574;9.736;2022-10-22T12:57:19;16.00;;;6.20;;
51489;SDS011;57752;53.574;9.736;2022-10-22T13:02:22;14.35;;;5.63;;
51489;SDS011;57752;53.574;9.736;2022-10-22T13:07:23;16.00;;;5.50;;
51489;SDS011;57752;53.574;9.736;2022-10-22T13:12:25;12.70;;;4.93;;
51489;SDS011;57752;53.574;9.736;2022-10-22T13:17:36;16.50;;;4.75;;
51489;SDS011;57752;53.574;9.736;2022-10-22T13:22:39;15.18;;;4.90;;
51489;SDS011;57752;53.574;9.736;2022-10-22T13:27:54;12.82;;;4.70;;
51489;SDS011;57752;53.574;9.736;2022-10-22T13:32:56;13.77;;;5.25;;
51489;SDS011;57752;53.574;9.736;2022-10-22T13:42:58;12.10;;;4.72;;
51489;SDS011;57752;53.574;9.736;2022-10-22T13:47:59;13.40;;;4.82;;
51489;SDS011;57752;53.574;9.736;2022-10-22T13:52:59;14.97;;;5.33;;
51489;SDS011;57752;53.574;9.736;2022-10-22T14:03:07;14.43;;;5.22;;
51489;SDS011;57752;53.574;9.736;2022-10-22T14:08:16;14.15;;;4.95;;
51489;SDS011;57752;53.574;9.736;2022-10-22T14:13:18;17.50;;;4.60;;
51489;SDS011;57752;53.574;9.736;2022-10-22T14:18:20;14.18;;;4.68;;
51489;SDS011;57752;53.574;9.736;2022-10-22T14:23:25;12.43;;;4.55;;
51489;SDS011;57752;53.574;9.736;2022-10-22T14:28:27;14.63;;;4.95;;
51489;SDS011;57752;53.574;9.736;2022-10-22T14:33:28;16.20;;;4.95;;
51489;SDS011;57752;53.574;9.736;2022-10-22T14:38:30;17.63;;;5.18;;
51489;SDS011;57752;53.574;9.736;2022-10-22T14:43:30;13.23;;;5.88;;
51489;SDS011;57752;53.574;9.736;2022-10-22T14:48:31;17.75;;;5.57;;
51489;SDS011;57752;53.574;9.736;2022-10-22T14:53:31;12.63;;;5.18;;
51489;SDS011;57752;53.574;9.736;2022-10-22T14:58:31;13.32;;;4.95;;
51489;SDS011;57752;53.574;9.736;2022-10-22T15:03:32;14.75;;;5.40;;
51489;SDS011;57752;53.574;9.736;2022-10-22T15:08:32;13.23;;;5.53;;
51489;SDS011;57752;53.574;9.736;2022-10-22T15:13:33;16.85;;;5.75;;
51489;SDS011;57752;53.574;9.736;2022-10-22T15:18:33;14.85;;;6.20;;
51489;SDS011;57752;53.574;9.736;2022-10-22T15:23:34;18.47;;;6.50;;
51489;SDS011;57752;53.574;9.736;2022-10-22T15:28:35;18.27;;;6.45;;
51489;SDS011;57752;53.574;9.736;2022-10-22T15:33:37;19.67;;;6.80;;
51489;SDS011;57752;53.574;9.736;2022-10-22T15:38:37;13.30;;;6.70;;
51489;SDS011;57752;53.574;9.736;2022-10-22T15:43:37;18.73;;;6.55;;
51489;SDS011;57752;53.574;9.736;2022-10-22T15:48:38;13.77;;;6.47;;
51489;SDS011;57752;53.574;9.736;2022-10-22T15:53:38;16.88;;;6.35;;
51489;SDS011;57752;53.574;9.736;2022-10-22T15:58:39;17.00;;;6.70;;
51489;SDS011;57752;53.574;9.736;2022-10-22T16:03:40;18.85;;;7.43;;
51489;SDS011;57752;53.574;9.736;2022-10-22T16:08:40;16.25;;;6.80;;
51489;SDS011;57752;53.574;9.736;2022-10-22T16:13:40;16.05;;;7.57;;
51489;SDS011;57752;53.574;9.736;2022-10-22T16:18:41;21.17;;;7.28;;
51489;SDS011;57752;53.574;9.736;2022-10-22T16:23:41;17.33;;;7.63;;
51489;SDS011;57752;53.574;9.736;2022-10-22T16:28:41;16.30;;;6.90;;
51489;SDS011;57752;53.574;9.736;2022-10-22T16:33:43;15.77;;;6.72;;
51489;SDS011;57752;53.574;9.736;2022-10-22T16:38:43;16.95;;;6.72;;
51489;SDS011;57752;53.574;9.736;2022-10-22T16:43:45;16.42;;;7.07;;
51489;SDS011;57752;53.574;9.736;2022-10-22T16:48:48;18.77;;;7.75;;
51489;SDS011;57752;53.574;9.736;2022-10-22T16:53:50;16.70;;;8.07;;
51489;SDS011;57752;53.574;9.736;2022-10-22T16:58:52;15.52;;;7.30;;
51489;SDS011;57752;53.574;9.736;2022-10-22T17:08:55;16.20;;;6.90;;
51489;SDS011;57752;53.574;9.736;2022-10-22T17:13:56;17.40;;;7.53;;
51489;SDS011;57752;53.574;9.736;2022-10-22T17:18:56;16.13;;;7.22;;
51489;SDS011;57752;53.574;9.736;2022-10-22T17:23:57;15.68;;;6.97;;
51489;SDS011;57752;53.574;9.736;2022-10-22T17:28:57;17.17;;;7.47;;
51489;SDS011;57752;53.574;9.736;2022-10-22T17:33:58;15.45;;;7.85;;
51489;SDS011;57752;53.574;9.736;2022-10-22T17:38:59;18.73;;;8.02;;
51489;SDS011;57752;53.574;9.736;2022-10-22T17:44:04;15.43;;;7.97;;
51489;SDS011;57752;53.574;9.736;2022-10-22T17:49:08;21.58;;;8.95;;
51489;SDS011;57752;53.574;9.736;2022-10-22T17:54:12;17.58;;;8.27;;
51489;SDS011;57752;53.574;9.736;2022-10-22T17:59:13;16.20;;;8.65;;
51489;SDS011;57752;53.574;9.736;2022-10-22T18:04:16;18.97;;;8.93;;
51489;SDS011;57752;53.574;9.736;2022-10-22T18:09:18;18.25;;;8.57;;
51489;SDS011;57752;53.574;9.736;2022-10-22T18:14:19;20.83;;;10.17;;
51489;SDS011;57752;53.574;9.736;2022-10-22T18:19:20;20.65;;;10.07;;
51489;SDS011;57752;53.574;9.736;2022-10-22T18:24:22;22.17;;;9.40;;
51489;SDS011;57752;53.574;9.736;2022-10-22T18:29:22;22.40;;;10.07;;
51489;SDS011;57752;53.574;9.736;2022-10-22T18:34:22;23.77;;;10.18;;
51489;SDS011;57752;53.574;9.736;2022-10-22T18:39:22;21.20;;;9.27;;
51489;SDS011;57752;53.574;9.736;2022-10-22T18:44:23;24.17;;;11.33;;
51489;SDS011;57752;53.574;9.736;2022-10-22T18:49:23;27.08;;;10.80;;
51489;SDS011;57752;53.574;9.736;2022-10-22T18:54:24;27.35;;;11.77;;
51489;SDS011;57752;53.574;9.736;2022-10-22T18:59:25;22.70;;;11.80;;
51489;SDS011;57752;53.574;9.736;2022-10-22T19:04:26;23.55;;;10.90;;
51489;SDS011;57752;53.574;9.736;2022-10-22T19:09:31;23.05;;;10.88;;
51489;SDS011;57752;53.574;9.736;2022-10-22T19:14:32;24.65;;;11.32;;
51489;SDS011;57752;53.574;9.736;2022-10-22T19:19:32;25.97;;;12.57;;
51489;SDS011;57752;53.574;9.736;2022-10-22T19:24:32;27.25;;;12.63;;
51489;SDS011;57752;53.574;9.736;2022-10-22T19:29:33;30.85;;;14.75;;
51489;SDS011;57752;53.574;9.736;2022-10-22T19:34:33;27.67;;;14.30;;
51489;SDS011;57752;53.574;9.736;2022-10-22T19:39:34;24.38;;;11.82;;
51489;SDS011;57752;53.574;9.736;2022-10-22T19:44:34;23.48;;;11.60;;
51489;SDS011;57752;53.574;9.736;2022-10-22T19:49:34;19.77;;;10.20;;
51489;SDS011;57752;53.574;9.736;2022-10-22T19:54:35;21.30;;;10.20;;
51489;SDS011;57752;53.574;9.736;2022-10-22T19:59:39;21.67;;;12.50;;
51489;SDS011;57752;53.574;9.736;2022-10-22T20:04:39;19.20;;;11.17;;
51489;SDS011;57752;53.574;9.736;2022-10-22T20:09:40;19.80;;;10.63;;
51489;SDS011;57752;53.574;9.736;2022-10-22T20:14:41;26.73;;;11.38;;
51489;SDS011;57752;53.574;9.736;2022-10-22T20:19:41;26.60;;;11.38;;
51489;SDS011;57752;53.574;9.736;2022-10-22T20:24:41;25.23;;;13.53;;
51489;SDS011;57752;53.574;9.736;2022-10-22T20:29:43;27.75;;;13.82;;
51489;SDS011;57752;53.574;9.736;2022-10-22T20:34:43;27.58;;;11.52;;
51489;SDS011;57752;53.574;9.736;2022-10-22T20:39:43;30.70;;;15.20;;
51489;SDS011;57752;53.574;9.736;2022-10-22T20:44:44;26.10;;;13.27;;
51489;SDS011;57752;53.574;9.736;2022-10-22T20:49:44;27.00;;;13.25;;
51489;SDS011;57752;53.574;9.736;2022-10-22T20:54:44;30.65;;;14.60;;
51489;SDS011;57752;53.574;9.736;2022-10-22T20:59:44;23.58;;;13.02;;
51489;SDS011;57752;53.574;9.736;2022-10-22T21:04:45;20.97;;;12.13;;
51489;SDS011;57752;53.574;9.736;2022-10-22T21:09:45;23.40;;;12.98;;
51489;SDS011;57752;53.574;9.736;2022-10-22T21:14:45;25.02;;;12.63;;
51489;SDS011;57752;53.574;9.736;2022-10-22T21:19:46;26.90;;;14.55;;
51489;SDS011;57752;53.574;9.736;2022-10-22T21:24:46;29.05;;;13.85;;
51489;SDS011;57752;53.574;9.736;2022-10-22T21:29:46;34.63;;;16.15;;
51489;SDS011;57752;53.574;9.736;2022-10-22T21:34:47;25.88;;;11.77;;
51489;SDS011;57752;53.574;9.736;2022-10-22T21:39:47;24.65;;;14.05;;
51489;SDS011;57752;53.574;9.736;2022-10-22T21:44:47;33.05;;;14.48;;
51489;SDS011;57752;53.574;9.736;2022-10-22T21:49:48;33.92;;;16.42;;
51489;SDS011;57752;53.574;9.736;2022-10-22T21:54:48;28.45;;;14.93;;
51489;SDS011;57752;53.574;9.736;2022-10-22T21:59:48;33.10;;;15.15;;
51489;SDS011;57752;53.574;9.736;2022-10-22T22:04:48;40.97;;;17.38;;
51489;SDS011;57752;53.574;9.736;2022-10-22T22:09:53;33.45;;;15.93;;
51489;SDS011;57752;53.574;9.736;2022-10-22T22:14:53;38.80;;;17.98;;
51489;SDS011;57752;53.574;9.736;2022-10-22T22:19:54;33.42;;;16.67;;
51489;SDS011;57752;53.574;9.736;2022-10-22T22:24:54;28.73;;;14.70;;
51489;SDS011;57752;53.574;9.736;2022-10-22T22:29:54;28.25;;;13.85;;
51489;SDS011;57752;53.574;9.736;2022-10-22T22:34:55;27.30;;;13.43;;
51489;SDS011;57752;53.574;9.736;2022-10-22T22:39:55;38.47;;;19.23;;
51489;SDS011;57752;53.574;9.736;2022-10-22T22:44:55;33.35;;;15.93;;
51489;SDS011;57752;53.574;9.736;2022-10-22T22:49:55;32.70;;;17.30;;
51489;SDS011;57752;53.574;9.736;2022-10-22T22:54:56;33.75;;;15.70;;
51489;SDS011;57752;53.574;9.736;2022-10-22T22:59:56;39.40;;;17.90;;
51489;SDS011;57752;53.574;9.736;2022-10-22T23:04:56;37.35;;;17.77;;
51489;SDS011;57752;53.574;9.736;2022-10-22T23:09:57;39.17;;;18.50;;
51489;SDS011;57752;53.574;9.736;2022-10-22T23:14:57;38.20;;;19.38;;
51489;SDS011;57752;53.574;9.736;2022-10-22T23:20:00;53.83;;;22.23;;
51489;SDS011;57752;53.574;9.736;2022-10-22T23:25:01;45.88;;;20.60;;
51489;SDS011;57752;53.574;9.736;2022-10-22T23:30:01;45.60;;;21.55;;
51489;SDS011;57752;53.574;9.736;2022-10-22T23:35:02;41.03;;;18.83;;
51489;SDS011;57752;53.574;9.736;2022-10-22T23:40:02;40.15;;;19.13;;
51489;SDS011;57752;53.574;9.736;2022-10-22T23:45:03;32.80;;;16.33;;
51489;SDS011;57752;53.574;9.736;2022-10-22T23:50:03;35.92;;;16.02;;
51489;SDS011;57752;53.574;9.736;2022-10-22T23:55:04;37.15;;;17.45;;
